createdAt,value
2023-03-25T00:00:28.223Z,12.8
2023-03-25T00:01:35.022Z,12.8
2023-03-25T00:02:41.925Z,12.8
2023-03-25T00:03:48.763Z,12.9
2023-03-25T00:04:55.690Z,13.1
2023-03-25T00:06:02.522Z,13.1
2023-03-25T00:07:09.550Z,13.1
2023-03-25T00:08:17.199Z,13.1
2023-03-25T00:09:24.095Z,13
2023-03-25T00:10:30.930Z,12.9
2023-03-25T00:11:37.809Z,12.8
2023-03-25T00:12:44.633Z,12.8
2023-03-25T00:13:51.517Z,12.8
2023-03-25T00:14:58.519Z,12.8
2023-03-25T00:16:05.480Z,12.8
2023-03-25T00:17:12.482Z,12.8
2023-03-25T00:18:19.372Z,12.9
2023-03-25T00:19:26.225Z,12.8
2023-03-25T00:20:33.221Z,12.7
2023-03-25T00:21:40.139Z,12.8
2023-03-25T00:22:49.481Z,12.5
2023-03-25T00:23:56.288Z,12.6
2023-03-25T00:25:03.216Z,12.8
2023-03-25T00:26:12.803Z,12.7
2023-03-25T00:27:19.593Z,12.8
2023-03-25T00:28:26.558Z,12.8
2023-03-25T00:29:33.450Z,12.8
2023-03-25T00:30:40.328Z,12.9
2023-03-25T00:31:47.097Z,12.8
2023-03-25T00:32:53.980Z,12.6
2023-03-25T00:34:03.763Z,12.6
2023-03-25T00:35:10.585Z,12.7
2023-03-25T00:36:17.574Z,12.8
2023-03-25T00:37:24.456Z,12.9
2023-03-25T00:38:31.270Z,13
2023-03-25T00:39:38.941Z,13
2023-03-25T00:40:45.792Z,13
2023-03-25T00:41:52.594Z,13.1
2023-03-25T00:42:59.450Z,13.1
2023-03-25T00:44:06.246Z,13
2023-03-25T00:45:13.130Z,13
2023-03-25T00:46:20.038Z,13
2023-03-25T00:47:26.807Z,13.1
2023-03-25T00:48:33.643Z,13.1
2023-03-25T00:49:40.491Z,13.2
2023-03-25T00:50:48.162Z,13.1
2023-03-25T00:51:55.003Z,13.1
2023-03-25T00:53:01.800Z,13.1
2023-03-25T00:54:08.645Z,13.2
2023-03-25T00:55:15.530Z,13.2
2023-03-25T00:56:22.363Z,13.2
2023-03-25T00:57:29.163Z,13.2
2023-03-25T00:58:35.954Z,13.1
2023-03-25T00:59:42.869Z,13.2
2023-03-25T01:00:49.785Z,13
2023-03-25T01:01:56.629Z,13.1
2023-03-25T01:03:03.516Z,13.2
2023-03-25T01:04:10.428Z,13.2
2023-03-25T01:05:17.212Z,13.1
2023-03-25T01:06:24.039Z,13
2023-03-25T01:07:35.922Z,12.9
2023-03-25T01:08:42.808Z,13
2023-03-25T01:09:50.463Z,13.1
2023-03-25T01:10:57.380Z,12.8
2023-03-25T01:12:04.290Z,12.8
2023-03-25T01:13:11.112Z,12.9
2023-03-25T01:14:18.054Z,12.9
2023-03-25T01:15:25.011Z,12.8
2023-03-25T01:16:31.862Z,12.9
2023-03-25T01:17:38.766Z,12.8
2023-03-25T01:18:45.594Z,12.8
2023-03-25T01:19:52.451Z,12.8
2023-03-25T01:20:59.319Z,12.8
2023-03-25T01:22:06.276Z,12.8
2023-03-25T01:23:13.069Z,12.9
2023-03-25T01:24:19.837Z,13
2023-03-25T01:25:26.677Z,13
2023-03-25T01:26:33.542Z,13.1
2023-03-25T01:27:40.375Z,13.1
2023-03-25T01:28:47.196Z,13
2023-03-25T01:29:54.098Z,12.9
2023-03-25T01:31:01.058Z,12.9
2023-03-25T01:32:07.916Z,12.9
2023-03-25T01:33:14.796Z,12.7
2023-03-25T01:34:21.606Z,12.5
2023-03-25T01:35:28.449Z,12.7
2023-03-25T01:36:35.297Z,12.7
2023-03-25T01:37:42.069Z,12.9
2023-03-25T01:38:48.901Z,12.9
2023-03-25T01:39:55.688Z,12.9
2023-03-25T01:41:02.625Z,12.8
2023-03-25T01:42:09.650Z,12.7
2023-03-25T01:43:17.331Z,12.7
2023-03-25T01:44:24.232Z,12.6
2023-03-25T01:45:31.036Z,12.4
2023-03-25T01:46:38.594Z,12.6
2023-03-25T01:47:48.277Z,12.7
2023-03-25T01:48:55.117Z,12.9
2023-03-25T01:50:01.962Z,12.9
2023-03-25T01:51:08.917Z,12.8
2023-03-25T01:52:15.800Z,12.9
2023-03-25T01:53:25.533Z,12.9
2023-03-25T01:54:32.384Z,13
2023-03-25T01:55:39.147Z,12.8
2023-03-25T01:56:45.985Z,12.7
2023-03-25T01:57:52.757Z,12.8
2023-03-25T01:58:59.635Z,12.9
2023-03-25T02:00:06.544Z,13
2023-03-25T02:01:14.520Z,13
2023-03-25T02:02:21.381Z,13
2023-03-25T02:03:28.323Z,13.1
2023-03-25T02:04:35.184Z,13
2023-03-25T02:05:50.111Z,13
2023-03-25T02:07:01.803Z,13
2023-03-25T02:08:08.616Z,13
2023-03-25T02:09:15.454Z,12.8
2023-03-25T02:10:22.284Z,12.9
2023-03-25T02:11:29.762Z,12.9
2023-03-25T02:12:36.315Z,12.9
2023-03-25T02:13:43.156Z,13
2023-03-25T02:14:50.049Z,13
2023-03-25T02:15:56.937Z,13
2023-03-25T02:17:11.435Z,13
2023-03-25T02:18:23.447Z,12.9
2023-03-25T02:19:30.209Z,12.9
2023-03-25T02:20:45.030Z,12.9
2023-03-25T02:22:01.973Z,12.9
2023-03-25T02:23:19.008Z,12.9
2023-03-25T02:24:35.944Z,12.9
2023-03-25T02:25:53.050Z,12.9
2023-03-25T02:27:04.952Z,12.8
2023-03-25T02:28:11.758Z,12.8
2023-03-25T02:29:28.733Z,12.8
2023-03-25T02:30:40.656Z,12.8
2023-03-25T02:31:55.386Z,12.8
2023-03-25T02:33:07.842Z,12.7
2023-03-25T02:34:24.964Z,12.7
2023-03-25T02:35:41.957Z,12.7
2023-03-25T02:36:53.870Z,12.7
2023-03-25T02:38:10.791Z,12.7
2023-03-25T02:39:22.666Z,12.7
2023-03-25T02:40:37.426Z,12.6
2023-03-25T02:41:49.919Z,12.6
2023-03-25T02:42:56.719Z,12.6
2023-03-25T02:44:13.639Z,12.6
2023-03-25T02:45:30.644Z,12.6
2023-03-25T02:46:37.440Z,12.6
2023-03-25T02:47:44.307Z,12.5
2023-03-25T02:48:51.094Z,12.5
2023-03-25T02:50:02.958Z,12.5
2023-03-25T02:51:17.568Z,12.5
2023-03-25T02:52:24.615Z,12.5
2023-03-25T02:53:36.472Z,12.5
2023-03-25T02:54:43.244Z,12.5
2023-03-25T02:55:50.272Z,12.4
2023-03-25T02:56:57.023Z,12.4
2023-03-25T02:58:03.821Z,12.4
2023-03-25T02:59:10.792Z,12.4
2023-03-25T03:00:17.643Z,12.4
2023-03-25T03:01:24.559Z,12.4
2023-03-25T03:02:31.553Z,12.4
2023-03-25T03:03:38.419Z,12.4
2023-03-25T03:04:45.252Z,12.4
2023-03-25T03:05:52.179Z,12.4
2023-03-25T03:06:59.144Z,12.4
2023-03-25T03:08:05.989Z,12.4
2023-03-25T03:09:16.340Z,12.4
2023-03-25T03:10:28.231Z,12.4
2023-03-25T03:11:40.133Z,12.4
2023-03-25T03:12:49.489Z,12.3
2023-03-25T03:14:04.326Z,12.3
2023-03-25T03:15:16.181Z,12.3
2023-03-25T03:16:30.962Z,12.3
2023-03-25T03:17:47.868Z,12.3
2023-03-25T03:19:00.437Z,12.3
2023-03-25T03:20:12.275Z,12.3
2023-03-25T03:21:29.305Z,12.3
2023-03-25T03:22:36.180Z,12.3
2023-03-25T03:23:44.901Z,12.2
2023-03-25T03:24:55.324Z,12.2
2023-03-25T03:26:07.613Z,12.1
2023-03-25T03:27:20.267Z,12
2023-03-25T03:28:29.637Z,12
2023-03-25T03:29:42.811Z,11.9
2023-03-25T03:30:49.657Z,11.6
2023-03-25T03:32:07.446Z,11.6
2023-03-25T03:33:21.372Z,11.9
2023-03-25T03:34:29.130Z,11.9
2023-03-25T03:35:43.682Z,12
2023-03-25T03:36:58.463Z,11.9
2023-03-25T03:38:05.281Z,11.9
2023-03-25T03:39:15.330Z,12
2023-03-25T03:40:22.217Z,12
2023-03-25T03:41:29.078Z,12
2023-03-25T03:42:35.853Z,12.1
2023-03-25T03:43:45.450Z,12.1
2023-03-25T03:44:55.267Z,12
2023-03-25T03:46:02.159Z,11.9
2023-03-25T03:47:09.157Z,11.7
2023-03-25T03:48:15.993Z,11.6
2023-03-25T03:49:28.175Z,11.7
2023-03-25T03:50:40.123Z,11.7
2023-03-25T03:51:47.135Z,11.8
2023-03-25T03:52:57.186Z,11.9
2023-03-25T03:54:05.967Z,11.9
2023-03-25T03:55:17.909Z,12
2023-03-25T03:56:30.801Z,12
2023-03-25T03:57:40.719Z,12
2023-03-25T03:58:47.533Z,11.9
2023-03-25T03:59:54.392Z,11.9
2023-03-25T04:01:11.373Z,11.9
2023-03-25T04:02:18.213Z,11.7
2023-03-25T04:03:31.720Z,11.7
2023-03-25T04:04:46.724Z,11.6
2023-03-25T04:05:53.791Z,11.6
2023-03-25T04:07:00.677Z,11.5
2023-03-25T04:08:10.328Z,11.5
2023-03-25T04:09:17.178Z,11.7
2023-03-25T04:10:29.982Z,11.7
2023-03-25T04:11:36.796Z,11.6
2023-03-25T04:12:43.665Z,11.5
2023-03-25T04:13:56.182Z,11.4
2023-03-25T04:15:03.001Z,11.5
2023-03-25T04:16:10.091Z,11.5
2023-03-25T04:17:16.928Z,11.6
2023-03-25T04:18:23.779Z,11.7
2023-03-25T04:19:30.604Z,11.7
2023-03-25T04:20:37.492Z,11.7
2023-03-25T04:21:47.371Z,11.7
2023-03-25T04:22:54.176Z,11.6
2023-03-25T04:24:01.195Z,11.5
2023-03-25T04:25:08.229Z,11.6
2023-03-25T04:26:15.009Z,11.6
2023-03-25T04:27:21.742Z,11.6
2023-03-25T04:28:28.638Z,11.6
2023-03-25T04:29:35.490Z,11.5
2023-03-25T04:30:42.325Z,11.4
2023-03-25T04:31:49.234Z,11.5
2023-03-25T04:32:56.026Z,11.4
2023-03-25T04:34:02.834Z,11.4
2023-03-25T04:35:09.649Z,11.4
2023-03-25T04:36:19.280Z,11.4
2023-03-25T04:37:26.093Z,11.4
2023-03-25T04:38:33.074Z,11.3
2023-03-25T04:39:39.899Z,11.2
2023-03-25T04:40:46.776Z,11.3
2023-03-25T04:41:53.511Z,11.2
2023-03-25T04:43:00.409Z,11.2
2023-03-25T04:44:07.270Z,11.3
2023-03-25T04:45:14.096Z,11.2
2023-03-25T04:46:20.979Z,11.3
2023-03-25T04:47:27.792Z,11.4
2023-03-25T04:48:34.659Z,11.4
2023-03-25T04:49:41.525Z,11.5
2023-03-25T04:50:48.361Z,11.4
2023-03-25T04:51:55.148Z,11.4
2023-03-25T04:53:02.035Z,11.4
2023-03-25T04:54:08.866Z,11.4
2023-03-25T04:55:15.844Z,11.4
2023-03-25T04:56:22.691Z,11.3
2023-03-25T04:57:29.520Z,11.3
2023-03-25T04:58:36.365Z,11.2
2023-03-25T04:59:43.223Z,11.1
2023-03-25T05:00:50.048Z,11.2
2023-03-25T05:01:56.872Z,11.2
2023-03-25T05:03:03.920Z,11.2
2023-03-25T05:04:10.720Z,11.1
2023-03-25T05:05:17.604Z,11.2
2023-03-25T05:06:26.987Z,11.1
2023-03-25T05:07:36.662Z,11.2
2023-03-25T05:08:43.587Z,11.1
2023-03-25T05:09:50.375Z,11.1
2023-03-25T05:10:57.177Z,11.1
2023-03-25T05:12:04.054Z,11.2
2023-03-25T05:13:10.928Z,11.2
2023-03-25T05:14:17.929Z,11.2
2023-03-25T05:15:24.865Z,11.3
2023-03-25T05:16:31.773Z,11.4
2023-03-25T05:17:38.640Z,11.4
2023-03-25T05:18:46.358Z,11.3
2023-03-25T05:19:53.225Z,11.2
2023-03-25T05:21:00.138Z,11.1
2023-03-25T05:22:07.089Z,11.1
2023-03-25T05:23:13.877Z,11.1
2023-03-25T05:24:20.751Z,11
2023-03-25T05:25:27.520Z,11
2023-03-25T05:26:34.351Z,10.9
2023-03-25T05:27:41.166Z,11.1
2023-03-25T05:28:48.015Z,11
2023-03-25T05:29:54.829Z,11.1
2023-03-25T05:31:01.639Z,11.1
2023-03-25T05:32:13.460Z,11.2
2023-03-25T05:33:23.216Z,11.1
2023-03-25T05:34:30.045Z,11.1
2023-03-25T05:35:37.875Z,11
2023-03-25T05:36:44.607Z,10.9
2023-03-25T05:37:51.509Z,10.9
2023-03-25T05:38:59.144Z,11
2023-03-25T05:40:14.442Z,10.9
2023-03-25T05:41:13.327Z,11
2023-03-25T05:42:20.119Z,11
2023-03-25T05:43:27.074Z,11
2023-03-25T05:44:34.064Z,11
2023-03-25T05:45:41.647Z,11.1
2023-03-25T05:46:48.459Z,11
2023-03-25T05:47:55.283Z,11
2023-03-25T05:49:02.114Z,11.1
2023-03-25T05:50:08.960Z,11.1
2023-03-25T05:51:16.617Z,11
2023-03-25T05:52:26.357Z,11.1
2023-03-25T05:53:33.233Z,11
2023-03-25T05:54:40.046Z,11
2023-03-25T05:55:46.858Z,11
2023-03-25T05:56:53.882Z,11.1
2023-03-25T05:58:00.681Z,10.9
2023-03-25T05:59:07.503Z,11
2023-03-25T06:00:14.357Z,11
2023-03-25T06:01:31.695Z,10.9
2023-03-25T06:02:28.181Z,11
2023-03-25T06:03:35.184Z,11
2023-03-25T06:04:41.909Z,10.9
2023-03-25T06:05:48.953Z,10.8
2023-03-25T06:06:55.643Z,10.8
2023-03-25T06:08:02.455Z,10.8
2023-03-25T06:09:09.347Z,10.8
2023-03-25T06:10:16.295Z,10.8
2023-03-25T06:11:23.126Z,10.9
2023-03-25T06:12:29.951Z,10.9
2023-03-25T06:13:36.823Z,10.8
2023-03-25T06:14:43.768Z,10.9
2023-03-25T06:15:50.956Z,10.9
2023-03-25T06:16:57.630Z,11
2023-03-25T06:18:04.449Z,11
2023-03-25T06:19:11.268Z,10.9
2023-03-25T06:20:21.668Z,10.8
2023-03-25T06:21:28.559Z,10.9
2023-03-25T06:22:38.420Z,11
2023-03-25T06:23:47.814Z,10.9
2023-03-25T06:24:54.743Z,10.8
2023-03-25T06:26:01.577Z,10.7
2023-03-25T06:27:10.839Z,10.7
2023-03-25T06:28:17.768Z,10.8
2023-03-25T06:29:24.645Z,10.8
2023-03-25T06:30:31.516Z,10.8
2023-03-25T06:31:38.502Z,10.9
2023-03-25T06:32:45.494Z,10.9
2023-03-25T06:33:52.391Z,10.9
2023-03-25T06:34:59.248Z,11
2023-03-25T06:36:06.195Z,11
2023-03-25T06:37:13.200Z,11.1
2023-03-25T06:38:20.108Z,10.9
2023-03-25T06:39:26.957Z,11.1
2023-03-25T06:40:33.881Z,11
2023-03-25T06:41:40.749Z,11
2023-03-25T06:42:47.612Z,11
2023-03-25T06:43:54.532Z,11.2
2023-03-25T06:45:01.284Z,11.2
2023-03-25T06:46:08.463Z,11.2
2023-03-25T06:47:15.271Z,11.3
2023-03-25T06:48:22.099Z,11.4
2023-03-25T06:49:28.969Z,11.4
2023-03-25T06:50:35.881Z,11.5
2023-03-25T06:51:42.741Z,11.5
2023-03-25T06:52:49.685Z,11.5
2023-03-25T06:53:57.370Z,11.5
2023-03-25T06:55:04.185Z,11.5
2023-03-25T06:56:11.220Z,11.6
2023-03-25T06:57:18.230Z,11.6
2023-03-25T06:58:25.044Z,11.8
2023-03-25T06:59:31.923Z,11.9
2023-03-25T07:00:38.748Z,12
2023-03-25T07:01:45.717Z,12
2023-03-25T07:02:52.654Z,11.9
2023-03-25T07:03:59.416Z,11.8
2023-03-25T07:05:06.355Z,11.9
2023-03-25T07:06:13.183Z,12
2023-03-25T07:07:20.035Z,12.1
2023-03-25T07:08:26.954Z,12.1
2023-03-25T07:09:33.775Z,12.1
2023-03-25T07:10:40.609Z,12.2
2023-03-25T07:11:48.274Z,12.2
2023-03-25T07:12:55.111Z,12.2
2023-03-25T07:14:02.190Z,12
2023-03-25T07:15:09.148Z,12
2023-03-25T07:16:16.004Z,12
2023-03-25T07:17:25.562Z,12.1
2023-03-25T07:18:32.451Z,11.9
2023-03-25T07:19:40.003Z,11.9
2023-03-25T07:20:47.728Z,12
2023-03-25T07:21:54.602Z,12.1
2023-03-25T07:23:01.611Z,12.2
2023-03-25T07:24:08.682Z,12
2023-03-25T07:25:15.511Z,12.1
2023-03-25T07:26:22.330Z,12.1
2023-03-25T07:27:29.127Z,12.1
2023-03-25T07:28:36.066Z,12.1
2023-03-25T07:29:42.936Z,12.1
2023-03-25T07:30:49.797Z,12.1
2023-03-25T07:31:56.635Z,12
2023-03-25T07:33:03.517Z,12.1
2023-03-25T07:34:10.418Z,12.1
2023-03-25T07:35:17.291Z,12.2
2023-03-25T07:36:24.140Z,12.1
2023-03-25T07:37:30.896Z,12
2023-03-25T07:38:37.719Z,12
2023-03-25T07:39:44.595Z,12.2
2023-03-25T07:40:51.614Z,12.2
2023-03-25T07:41:58.436Z,12.1
2023-03-25T07:43:05.316Z,12.2
2023-03-25T07:44:12.159Z,12.2
2023-03-25T07:45:18.967Z,12.3
2023-03-25T07:46:25.924Z,12.5
2023-03-25T07:47:33.502Z,12.7
2023-03-25T07:48:41.208Z,12.9
2023-03-25T07:49:48.052Z,12.9
2023-03-25T07:50:54.856Z,13
2023-03-25T07:52:01.870Z,13
2023-03-25T07:53:09.608Z,13.2
2023-03-25T07:54:16.446Z,13.5
2023-03-25T07:55:24.178Z,13.4
2023-03-25T07:56:31.065Z,13.4
2023-03-25T07:57:37.841Z,13.8
2023-03-25T07:58:44.880Z,13.8
2023-03-25T07:59:51.716Z,14.1
2023-03-25T08:00:58.590Z,14.1
2023-03-25T08:02:05.435Z,14.3
2023-03-25T08:03:12.465Z,14.3
2023-03-25T08:04:19.389Z,14.2
2023-03-25T08:05:26.278Z,14.3
2023-03-25T08:06:33.160Z,14
2023-03-25T08:07:40.171Z,14.1
2023-03-25T08:08:47.022Z,14.1
2023-03-25T08:09:53.832Z,14.4
2023-03-25T08:11:01.491Z,14.5
2023-03-25T08:12:08.447Z,14.5
2023-03-25T08:13:15.268Z,14.3
2023-03-25T08:14:22.121Z,14.5
2023-03-25T08:15:29.028Z,14.2
2023-03-25T08:16:35.847Z,14.1
2023-03-25T08:17:42.790Z,14
2023-03-25T08:18:49.672Z,14
2023-03-25T08:19:56.592Z,14
2023-03-25T08:21:03.499Z,13.9
2023-03-25T08:22:10.371Z,13.9
2023-03-25T08:23:19.572Z,13.9
2023-03-25T08:24:24.971Z,13.9
2023-03-25T08:25:31.813Z,13.8
2023-03-25T08:26:38.680Z,13.8
2023-03-25T08:27:45.427Z,13.9
2023-03-25T08:28:52.289Z,14
2023-03-25T08:29:59.219Z,13.9
2023-03-25T08:31:06.050Z,14.1
2023-03-25T08:32:13.738Z,14.2
2023-03-25T08:33:20.614Z,14.3
2023-03-25T08:34:28.634Z,14.3
2023-03-25T08:35:34.871Z,14.1
2023-03-25T08:36:41.744Z,14.1
2023-03-25T08:37:48.552Z,14.1
2023-03-25T08:38:55.362Z,14.2
2023-03-25T08:40:02.237Z,14.2
2023-03-25T08:41:09.272Z,14.1
2023-03-25T08:42:17.165Z,14.2
2023-03-25T08:43:24.077Z,14.3
2023-03-25T08:44:30.870Z,14.3
2023-03-25T08:45:37.720Z,14.5
2023-03-25T08:46:44.620Z,14.6
2023-03-25T08:47:51.431Z,14.5
2023-03-25T08:48:58.334Z,14.5
2023-03-25T08:50:05.151Z,14.5
2023-03-25T08:51:13.082Z,14.5
2023-03-25T08:52:19.957Z,14.6
2023-03-25T08:53:27.712Z,14.5
2023-03-25T08:54:34.711Z,14.6
2023-03-25T08:55:41.574Z,14.7
2023-03-25T08:56:48.550Z,14.7
2023-03-25T08:57:56.522Z,14.5
2023-03-25T08:59:06.191Z,14.8
2023-03-25T09:00:13.040Z,15
2023-03-25T09:01:20.007Z,14.8
2023-03-25T09:02:26.821Z,14.9
2023-03-25T09:03:33.700Z,15.2
2023-03-25T09:04:40.611Z,15.4
2023-03-25T09:05:47.448Z,15.3
2023-03-25T09:07:10.250Z,15.5
2023-03-25T09:08:01.262Z,15.5
2023-03-25T09:09:08.188Z,15.4
2023-03-25T09:10:15.040Z,15.1
2023-03-25T09:11:30.424Z,15.3
2023-03-25T09:12:28.860Z,15.5
2023-03-25T09:13:35.776Z,15.6
2023-03-25T09:14:42.592Z,15.8
2023-03-25T09:15:49.739Z,15.9
2023-03-25T09:16:58.192Z,15.7
2023-03-25T09:18:05.024Z,15.8
2023-03-25T09:19:11.744Z,15.9
2023-03-25T09:20:18.667Z,15.7
2023-03-25T09:21:29.838Z,15.6
2023-03-25T09:22:36.607Z,16
2023-03-25T09:23:43.529Z,16
2023-03-25T09:24:50.239Z,16
2023-03-25T09:25:57.003Z,16.2
2023-03-25T09:27:03.831Z,16.3
2023-03-25T09:28:10.612Z,16.4
2023-03-25T09:29:17.455Z,16.5
2023-03-25T09:30:24.347Z,16.4
2023-03-25T09:31:31.134Z,16.3
2023-03-25T09:32:38.007Z,16.2
2023-03-25T09:33:44.798Z,16
2023-03-25T09:34:51.760Z,16
2023-03-25T09:35:58.589Z,16.1
2023-03-25T09:37:05.393Z,16.1
2023-03-25T09:38:12.174Z,16.1
2023-03-25T09:39:18.984Z,15.9
2023-03-25T09:40:25.893Z,15.8
2023-03-25T09:41:32.749Z,15.9
2023-03-25T09:42:44.626Z,15.5
2023-03-25T09:43:57.362Z,15.7
2023-03-25T09:45:14.299Z,15.8
2023-03-25T09:46:26.242Z,15.8
2023-03-25T09:47:33.029Z,15.6
2023-03-25T09:48:39.846Z,15.7
2023-03-25T09:49:46.696Z,15.5
2023-03-25T09:50:53.501Z,15.8
2023-03-25T09:52:06.008Z,16.1
2023-03-25T09:53:17.875Z,16
2023-03-25T09:54:29.812Z,16.2
2023-03-25T09:55:36.565Z,16.5
2023-03-25T09:56:43.356Z,16.5
2023-03-25T09:57:50.107Z,16.4
2023-03-25T09:58:56.916Z,16.1
2023-03-25T10:00:08.783Z,16
2023-03-25T10:01:18.709Z,16.1
2023-03-25T10:02:30.475Z,15.9
2023-03-25T10:03:39.915Z,15.7
2023-03-25T10:04:56.943Z,15.7
2023-03-25T10:06:13.855Z,16.1
2023-03-25T10:07:23.397Z,16.4
2023-03-25T10:08:38.312Z,16.4
2023-03-25T10:09:55.200Z,16.5
2023-03-25T10:11:04.436Z,16.6
2023-03-25T10:12:11.182Z,16.8
2023-03-25T10:13:25.824Z,16.9
2023-03-25T10:14:35.256Z,16.5
2023-03-25T10:15:50.191Z,16.6
2023-03-25T10:16:59.809Z,16.7
2023-03-25T10:18:16.738Z,16.8
2023-03-25T10:19:31.470Z,16.8
2023-03-25T10:20:46.369Z,16.6
2023-03-25T10:21:58.230Z,16.6
2023-03-25T10:23:07.932Z,16.8
2023-03-25T10:24:14.786Z,16.6
2023-03-25T10:25:21.677Z,16.5
2023-03-25T10:26:28.414Z,16.5
2023-03-25T10:27:40.315Z,16.7
2023-03-25T10:28:50.170Z,16.8
2023-03-25T10:29:59.970Z,17
2023-03-25T10:31:17.019Z,16.6
2023-03-25T10:32:23.865Z,16.5
2023-03-25T10:33:33.663Z,16.2
2023-03-25T10:34:40.397Z,16.2
2023-03-25T10:35:47.324Z,16
2023-03-25T10:36:54.093Z,15.9
2023-03-25T10:38:02.029Z,15.8
2023-03-25T10:39:15.587Z,15.8
2023-03-25T10:40:22.443Z,15.6
2023-03-25T10:41:29.304Z,15.8
2023-03-25T10:42:38.536Z,16.2
2023-03-25T10:43:45.384Z,16.5
2023-03-25T10:44:52.210Z,16.4
2023-03-25T10:46:00.264Z,16.4
2023-03-25T10:47:12.163Z,16.5
2023-03-25T10:48:18.940Z,16.4
2023-03-25T10:49:25.918Z,15.9
2023-03-25T10:50:32.691Z,15.8
2023-03-25T10:51:39.579Z,15.7
2023-03-25T10:52:46.331Z,15.6
2023-03-25T10:53:53.306Z,15.7
2023-03-25T10:54:59.977Z,15.6
2023-03-25T10:56:06.854Z,15.5
2023-03-25T10:57:16.529Z,15.7
2023-03-25T10:58:23.286Z,15.9
2023-03-25T10:59:30.042Z,15.7
2023-03-25T11:00:41.924Z,15.7
2023-03-25T11:01:48.642Z,15.4
2023-03-25T11:02:55.438Z,15.5
2023-03-25T11:04:02.406Z,15.7
2023-03-25T11:05:09.264Z,15.8
2023-03-25T11:06:16.161Z,15.8
2023-03-25T11:07:30.965Z,15.7
2023-03-25T11:08:40.632Z,15.5
2023-03-25T11:09:57.542Z,15.3
2023-03-25T11:11:14.531Z,15.3
2023-03-25T11:12:27.545Z,15.1
2023-03-25T11:13:28.203Z,15.1
2023-03-25T11:14:34.987Z,15.2
2023-03-25T11:15:41.767Z,15
2023-03-25T11:16:48.573Z,15
2023-03-25T11:17:55.526Z,14.9
2023-03-25T11:19:05.354Z,14.9
2023-03-25T11:20:12.159Z,14.9
2023-03-25T11:21:21.722Z,15.1
2023-03-25T11:22:28.687Z,15
2023-03-25T11:23:35.377Z,15.1
2023-03-25T11:24:47.196Z,15.1
2023-03-25T11:25:53.953Z,15.1
2023-03-25T11:27:00.804Z,15
2023-03-25T11:28:07.705Z,15
2023-03-25T11:29:17.531Z,15.2
2023-03-25T11:30:24.348Z,15.5
2023-03-25T11:31:31.154Z,15.7
2023-03-25T11:32:37.989Z,15.9
2023-03-25T11:33:44.683Z,16
2023-03-25T11:34:51.608Z,16
2023-03-25T11:35:58.449Z,16.1
2023-03-25T11:37:15.338Z,16
2023-03-25T11:38:25.057Z,15.8
2023-03-25T11:39:31.882Z,15.8
2023-03-25T11:40:38.643Z,15.7
2023-03-25T11:41:53.458Z,15.9
2023-03-25T11:43:00.331Z,15.8
2023-03-25T11:44:07.254Z,15.7
2023-03-25T11:45:14.179Z,15.8
2023-03-25T11:46:23.753Z,15.9
2023-03-25T11:47:30.518Z,15.7
2023-03-25T11:48:37.331Z,15.5
2023-03-25T11:49:44.161Z,15.4
2023-03-25T11:50:50.965Z,15.4
2023-03-25T11:51:57.822Z,15.4
2023-03-25T11:53:09.729Z,15.4
2023-03-25T11:54:16.606Z,15.5
2023-03-25T11:55:23.686Z,15.5
2023-03-25T11:56:31.474Z,15.2
2023-03-25T11:57:43.343Z,15.3
2023-03-25T11:58:50.135Z,15.2
2023-03-25T11:59:56.984Z,15.3
2023-03-25T12:01:03.883Z,15.2
2023-03-25T12:02:20.770Z,15.1
2023-03-25T12:03:32.725Z,15.1
2023-03-25T12:04:39.411Z,15
2023-03-25T12:05:56.390Z,15
2023-03-25T12:07:08.176Z,15
2023-03-25T12:08:14.960Z,15.1
2023-03-25T12:09:21.852Z,14.9
2023-03-25T12:10:28.721Z,14.9
2023-03-25T12:11:35.505Z,15
2023-03-25T12:12:44.987Z,15.2
2023-03-25T12:13:51.983Z,15.3
2023-03-25T12:15:03.836Z,15.3
2023-03-25T12:16:13.519Z,15.1
2023-03-25T12:17:25.604Z,15.2
2023-03-25T12:18:42.509Z,15.1
2023-03-25T12:19:59.505Z,14.9
2023-03-25T12:21:16.436Z,14.9
2023-03-25T12:22:33.357Z,14.9
2023-03-25T12:23:45.241Z,14.9
2023-03-25T12:25:02.149Z,14.9
2023-03-25T12:26:13.998Z,14.9
2023-03-25T12:27:20.773Z,15
2023-03-25T12:28:35.688Z,15
2023-03-25T12:29:47.517Z,14.8
2023-03-25T12:31:02.206Z,14.8
2023-03-25T12:32:14.025Z,14.8
2023-03-25T12:33:24.053Z,14.9
2023-03-25T12:34:39.564Z,15
2023-03-25T12:35:48.321Z,15.1
2023-03-25T12:36:57.780Z,14.9
2023-03-25T12:38:14.697Z,14.8
2023-03-25T12:39:32.418Z,14.8
2023-03-25T12:40:36.185Z,14.9
2023-03-25T12:41:48.037Z,14.9
2023-03-25T12:42:57.414Z,14.9
2023-03-25T12:44:07.239Z,14.9
2023-03-25T12:45:14.106Z,14.9
2023-03-25T12:46:31.134Z,14.9
2023-03-25T12:47:48.101Z,14.8
2023-03-25T12:49:00.016Z,14.8
2023-03-25T12:50:06.941Z,14.8
2023-03-25T12:51:18.801Z,14.7
2023-03-25T12:52:28.633Z,14.7
2023-03-25T12:53:45.522Z,14.6
2023-03-25T12:54:57.484Z,14.5
2023-03-25T12:56:11.176Z,14.6
2023-03-25T12:57:21.872Z,14.9
2023-03-25T12:58:36.243Z,14.8
2023-03-25T12:59:51.110Z,15
2023-03-25T13:01:03.039Z,15
2023-03-25T13:02:19.965Z,15.3
2023-03-25T13:03:36.882Z,15.2
2023-03-25T13:04:51.493Z,15.2
2023-03-25T13:06:06.333Z,15
2023-03-25T13:07:20.933Z,15.1
2023-03-25T13:08:35.620Z,15
2023-03-25T13:09:45.084Z,15.1
2023-03-25T13:11:02.028Z,14.9
2023-03-25T13:12:13.868Z,14.9
2023-03-25T13:13:25.761Z,15
2023-03-25T13:14:32.580Z,15
2023-03-25T13:15:39.384Z,14.8
2023-03-25T13:16:49.121Z,14.6
2023-03-25T13:17:55.947Z,14.5
2023-03-25T13:19:05.409Z,14.5
2023-03-25T13:20:17.247Z,14.6
2023-03-25T13:21:24.125Z,14.6
2023-03-25T13:22:35.967Z,14.5
2023-03-25T13:23:45.591Z,14.4
2023-03-25T13:24:52.329Z,14.1
2023-03-25T13:25:59.217Z,13.9
2023-03-25T13:27:09.000Z,13.8
2023-03-25T13:28:15.795Z,13.6
2023-03-25T13:29:27.718Z,13.5
2023-03-25T13:30:34.551Z,13.4
2023-03-25T13:31:41.376Z,13.3
2023-03-25T13:32:48.295Z,13.3
2023-03-25T13:33:54.990Z,13.1
2023-03-25T13:35:09.635Z,13
2023-03-25T13:36:24.334Z,13.1
2023-03-25T13:37:31.199Z,12.9
2023-03-25T13:38:38.006Z,12.9
2023-03-25T13:39:52.870Z,13
2023-03-25T13:41:09.811Z,12.9
2023-03-25T13:42:21.669Z,12.8
2023-03-25T13:43:31.299Z,12.9
2023-03-25T13:44:46.158Z,12.8
2023-03-25T13:45:53.017Z,12.8
2023-03-25T13:47:04.946Z,12.8
2023-03-25T13:48:21.844Z,12.9
2023-03-25T13:49:33.713Z,12.9
2023-03-25T13:50:40.601Z,13
2023-03-25T13:51:47.372Z,13
2023-03-25T13:52:54.188Z,13.1
2023-03-25T13:54:04.491Z,13.3
2023-03-25T13:55:16.012Z,13.3
2023-03-25T13:56:25.844Z,13.3
2023-03-25T13:57:42.754Z,13.3
2023-03-25T13:58:59.641Z,13.5
2023-03-25T14:00:14.455Z,13.6
2023-03-25T14:01:31.522Z,13.7
2023-03-25T14:02:48.495Z,13.7
2023-03-25T14:04:03.449Z,13.7
2023-03-25T14:05:20.371Z,13.6
2023-03-25T14:06:32.159Z,13.9
2023-03-25T14:07:44.067Z,13.9
2023-03-25T14:08:50.969Z,13.9
2023-03-25T14:09:57.759Z,13.9
2023-03-25T14:11:14.704Z,13.8
2023-03-25T14:12:29.108Z,13.9
2023-03-25T14:13:40.988Z,13.6
2023-03-25T14:14:50.259Z,13.7
2023-03-25T14:15:57.094Z,13.8
2023-03-25T14:17:03.866Z,13.9
2023-03-25T14:18:10.682Z,13.9
2023-03-25T14:19:20.117Z,13.9
2023-03-25T14:20:34.690Z,13.8
2023-03-25T14:21:41.458Z,13.9
2023-03-25T14:22:48.310Z,13.8
2023-03-25T14:23:57.704Z,13.8
2023-03-25T14:25:07.409Z,13.9
2023-03-25T14:26:24.336Z,13.8
2023-03-25T14:27:31.202Z,13.8
2023-03-25T14:28:37.901Z,13.7
2023-03-25T14:29:44.779Z,13.8
2023-03-25T14:30:56.626Z,13.8
2023-03-25T14:32:13.621Z,13.8
2023-03-25T14:33:20.506Z,13.7
2023-03-25T14:34:27.293Z,13.7
2023-03-25T14:35:34.298Z,13.8
2023-03-25T14:36:43.437Z,13.7
2023-03-25T14:37:50.275Z,13.8
2023-03-25T14:38:57.118Z,13.7
2023-03-25T14:40:03.922Z,13.8
2023-03-25T14:41:20.879Z,13.8
2023-03-25T14:42:37.754Z,13.7
2023-03-25T14:43:54.659Z,13.7
2023-03-25T14:45:01.482Z,13.7
2023-03-25T14:46:18.765Z,13.6
2023-03-25T14:47:25.440Z,13.7
2023-03-25T14:48:32.270Z,13.8
2023-03-25T14:49:39.068Z,13.8
2023-03-25T14:50:56.018Z,13.8
2023-03-25T14:52:12.972Z,13.9
2023-03-25T14:53:19.743Z,13.9
2023-03-25T14:54:26.543Z,14.1
2023-03-25T14:55:33.339Z,14.1
2023-03-25T14:56:45.578Z,14.2
2023-03-25T14:57:57.455Z,14.2
2023-03-25T14:59:09.404Z,14.3
2023-03-25T15:00:16.297Z,14.4
2023-03-25T15:01:28.210Z,14.5
2023-03-25T15:02:35.031Z,14.6
2023-03-25T15:03:41.803Z,14.6
2023-03-25T15:04:48.580Z,14.7
2023-03-25T15:06:00.319Z,14.7
2023-03-25T15:07:05.025Z,14.7
2023-03-25T15:08:12.062Z,14.7
2023-03-25T15:09:19.064Z,14.8
2023-03-25T15:10:25.866Z,14.7
2023-03-25T15:11:32.679Z,14.5
2023-03-25T15:12:39.472Z,14.6
2023-03-25T15:13:46.294Z,14.6
2023-03-25T15:14:53.172Z,14.6
2023-03-25T15:16:00.139Z,14.4
2023-03-25T15:17:06.876Z,14.4
2023-03-25T15:18:13.667Z,14.4
2023-03-25T15:19:30.624Z,14.4
2023-03-25T15:20:42.527Z,14.4
2023-03-25T15:21:49.321Z,14.4
2023-03-25T15:23:01.217Z,14.4